createdAt,value
2023-03-06T00:04:45.648Z,38.20
2023-03-06T00:09:38.276Z,40.80
2023-03-06T00:14:30.923Z,33.80
2023-03-06T00:19:24.526Z,36.20
2023-03-06T00:24:17.433Z,31.90
2023-03-06T00:29:10.090Z,37.60
2023-03-06T00:34:03.938Z,32.50
2023-03-06T00:38:56.718Z,47.00
2023-03-06T00:43:51.518Z,37.90
2023-03-06T00:48:44.951Z,34.40
2023-03-06T00:53:38.377Z,37.70
2023-03-06T00:58:31.097Z,33.40
2023-03-06T01:03:23.729Z,36.40
2023-03-06T01:08:17.802Z,34.10
2023-03-06T01:13:10.807Z,32.60
2023-03-06T01:18:03.519Z,35.70
2023-03-06T01:22:56.777Z,31.40
2023-03-06T01:27:49.377Z,30.80
2023-03-06T01:32:42.164Z,34.20
2023-03-06T01:37:37.650Z,36.40
2023-03-06T01:42:32.069Z,34.20
2023-03-06T01:47:24.859Z,35.40
2023-03-06T01:52:23.087Z,30.60
2023-03-06T01:57:30.055Z,34.40
2023-03-06T02:02:23.621Z,33.50
2023-03-06T02:07:21.566Z,38.40
2023-03-06T02:12:18.839Z,36.10
2023-03-06T02:22:07.275Z,42.60
2023-03-06T02:27:02.071Z,43.90
2023-03-06T02:31:54.817Z,38.60
2023-03-06T02:36:51.664Z,40.40
2023-03-06T02:41:44.490Z,37.10
2023-03-06T02:46:38.890Z,38.90
2023-03-06T02:51:31.560Z,40.50
2023-03-06T02:56:24.328Z,46.60
2023-03-06T03:01:17.227Z,41.20
2023-03-06T03:06:10.035Z,38.70
2023-03-06T03:11:03.880Z,36.00
2023-03-06T03:16:09.093Z,34.60
2023-03-06T03:21:01.862Z,39.50
2023-03-06T03:25:54.886Z,36.70
2023-03-06T03:30:48.192Z,37.10
2023-03-06T03:35:41.487Z,35.30
2023-03-06T03:40:34.344Z,44.90
2023-03-06T03:45:27.062Z,29.80
2023-03-06T03:50:20.574Z,34.20
2023-03-06T03:55:13.649Z,38.50
2023-03-06T04:00:08.151Z,36.30
2023-03-06T04:05:07.072Z,32.40
2023-03-06T04:10:00.161Z,36.90
2023-03-06T04:14:53.607Z,34.50
2023-03-06T04:19:46.373Z,39.60
2023-03-06T04:24:41.629Z,37.30
2023-03-06T04:29:34.736Z,34.90
2023-03-06T04:34:27.549Z,36.50
2023-03-06T04:39:20.298Z,39.60
2023-03-06T04:44:13.823Z,29.80
2023-03-06T04:49:06.538Z,33.90
2023-03-06T04:53:59.288Z,27.00
2023-03-06T04:58:51.979Z,38.70
2023-03-06T05:03:44.584Z,35.90
2023-03-06T05:08:37.374Z,32.30
2023-03-06T05:13:30.160Z,35.70
2023-03-06T05:18:23.112Z,37.70
2023-03-06T05:23:16.274Z,36.20
2023-03-06T05:28:09.252Z,46.40
2023-03-06T05:33:02.443Z,36.80
2023-03-06T05:37:55.093Z,36.90
2023-03-06T05:42:47.741Z,46.80
2023-03-06T05:47:40.425Z,41.80
2023-03-06T05:52:33.103Z,45.30
2023-03-06T05:57:27.664Z,51.20
2023-03-06T06:02:20.916Z,45.60
2023-03-06T06:07:15.655Z,49.90
2023-03-06T06:12:11.490Z,46.60
2023-03-06T06:17:04.249Z,47.00
2023-03-06T06:21:57.042Z,50.80
2023-03-06T06:26:58.000Z,59.10
2023-03-06T06:31:52.230Z,55.70
2023-03-06T06:36:45.632Z,47.70
2023-03-06T06:41:56.996Z,50.90
2023-03-06T06:52:03.554Z,58.00
2023-03-06T06:56:56.203Z,50.30
2023-03-06T07:01:48.892Z,47.40
2023-03-06T07:06:42.514Z,43.20
2023-03-06T07:11:35.755Z,42.40
2023-03-06T07:16:28.790Z,40.00
2023-03-06T07:21:24.511Z,35.80
2023-03-06T07:26:17.215Z,43.20
2023-03-06T07:31:11.632Z,39.00
2023-03-06T07:36:04.874Z,43.20
2023-03-06T07:40:57.526Z,41.20
2023-03-06T07:45:57.842Z,36.70
2023-03-06T07:51:02.963Z,35.30
2023-03-06T07:55:55.949Z,34.00
2023-03-06T08:00:48.867Z,39.70
2023-03-06T08:05:41.813Z,29.00
2023-03-06T08:10:34.569Z,29.90
2023-03-06T08:15:27.253Z,25.90
2023-03-06T08:20:19.976Z,28.40
2023-03-06T08:25:15.222Z,24.20
2023-03-06T08:30:09.649Z,26.00
2023-03-06T08:35:04.683Z,24.40
2023-03-06T08:39:57.440Z,23.10
2023-03-06T08:44:50.664Z,24.70
2023-03-06T08:49:43.332Z,24.20
2023-03-06T08:54:37.440Z,19.90
2023-03-06T08:59:30.212Z,25.10
2023-03-06T09:04:22.835Z,20.80
2023-03-06T09:09:15.822Z,20.10
2023-03-06T09:14:08.741Z,17.70
2023-03-06T09:19:01.756Z,15.80
2023-03-06T09:23:54.412Z,18.10
2023-03-06T09:28:47.844Z,15.30
2023-03-06T09:33:40.623Z,17.30
2023-03-06T09:38:33.480Z,15.70
2023-03-06T09:43:48.170Z,17.80
2023-03-06T09:49:10.548Z,11.60
2023-03-06T09:54:14.554Z,14.00
2023-03-06T09:59:20.427Z,14.60
2023-03-06T10:04:48.026Z,14.30
2023-03-06T10:09:47.499Z,14.00
2023-03-06T10:14:48.471Z,14.90
2023-03-06T10:19:43.300Z,13.10
2023-03-06T10:24:56.000Z,10.30
2023-03-06T10:30:07.581Z,13.90
2023-03-06T10:35:05.393Z,16.00
2023-03-06T10:40:10.275Z,13.10
2023-03-06T10:45:09.564Z,12.20
2023-03-06T10:50:05.642Z,15.40
2023-03-06T10:55:23.947Z,18.20
2023-03-06T11:00:37.023Z,15.20
2023-03-06T11:05:29.798Z,17.20
2023-03-06T11:10:24.004Z,13.70
2023-03-06T11:15:19.035Z,11.40
2023-03-06T11:20:20.799Z,12.40
2023-03-06T11:25:17.889Z,13.20
2023-03-06T11:30:20.158Z,14.70
2023-03-06T11:35:25.791Z,15.60
2023-03-06T11:40:33.114Z,12.50
2023-03-06T11:45:37.293Z,12.80
2023-03-06T11:50:39.004Z,11.90
2023-03-06T11:55:31.576Z,10.20
2023-03-06T12:00:40.084Z,20.50
2023-03-06T12:05:50.435Z,14.90
2023-03-06T12:10:53.601Z,13.10
2023-03-06T12:16:04.929Z,13.60
2023-03-06T12:21:39.453Z,12.20
2023-03-06T12:26:51.001Z,13.40
2023-03-06T12:32:06.425Z,11.00
2023-03-06T12:37:17.292Z,14.00
2023-03-06T12:42:35.556Z,16.20
2023-03-06T12:52:32.527Z,20.90
2023-03-06T12:57:26.660Z,19.50
2023-03-06T13:02:44.008Z,22.40
2023-03-06T13:08:14.490Z,19.60
2023-03-06T13:13:32.621Z,23.60
2023-03-06T13:18:25.229Z,24.10
2023-03-06T13:23:30.125Z,24.50
2023-03-06T13:28:40.230Z,20.60
2023-03-06T13:33:33.216Z,19.10
2023-03-06T13:39:11.150Z,24.60
2023-03-06T13:44:28.253Z,21.40
2023-03-06T13:49:25.776Z,22.80
2023-03-06T13:59:59.629Z,19.00
2023-03-06T14:05:00.911Z,16.40
2023-03-06T14:10:15.677Z,19.80
2023-03-06T14:15:32.815Z,23.30
2023-03-06T14:20:34.568Z,24.30
2023-03-06T14:25:32.916Z,20.70
2023-03-06T14:30:27.105Z,22.70
2023-03-06T14:35:26.719Z,22.20
2023-03-06T14:40:31.447Z,23.80
2023-03-06T14:45:25.171Z,27.00
2023-03-06T14:50:30.319Z,28.40
2023-03-06T14:55:25.654Z,31.40
2023-03-06T15:00:22.508Z,26.50
2023-03-06T15:05:28.420Z,32.40
2023-03-06T15:10:30.984Z,34.60
2023-03-06T15:15:30.256Z,36.30
2023-03-06T15:20:42.459Z,34.10
2023-03-06T15:25:36.056Z,34.60
2023-03-06T15:30:31.024Z,27.60
2023-03-06T15:35:30.280Z,30.80
2023-03-06T15:40:25.519Z,27.70
2023-03-06T15:45:21.899Z,29.00
2023-03-06T15:50:20.922Z,29.10
2023-03-06T15:55:15.019Z,31.70
2023-03-06T16:00:26.453Z,32.40
2023-03-06T16:05:20.924Z,33.90
2023-03-06T16:10:15.714Z,30.80
2023-03-06T16:15:20.099Z,30.10
2023-03-06T16:20:23.821Z,31.70
2023-03-06T16:25:18.444Z,33.80
2023-03-06T16:30:20.853Z,30.20
2023-03-06T16:35:14.877Z,30.30
2023-03-06T16:40:19.324Z,32.70
2023-03-06T16:45:12.548Z,27.30
2023-03-06T16:50:05.941Z,30.50
2023-03-06T16:54:58.557Z,36.80
2023-03-06T16:59:52.304Z,30.30
2023-03-06T17:04:45.315Z,35.90
2023-03-06T17:09:38.007Z,33.30
2023-03-06T17:14:30.976Z,39.50
2023-03-06T17:19:23.647Z,37.60
2023-03-06T17:24:16.830Z,38.50
2023-03-06T17:29:12.157Z,42.70
2023-03-06T17:34:50.096Z,37.90
2023-03-06T17:39:49.917Z,28.60
2023-03-06T17:44:43.000Z,30.20
2023-03-06T17:49:35.795Z,30.70
2023-03-06T17:54:30.247Z,28.70
2023-03-06T17:59:22.986Z,28.30
2023-03-06T18:04:16.974Z,33.80
2023-03-06T18:09:10.292Z,31.80
2023-03-06T18:14:05.376Z,28.30
2023-03-06T18:18:58.578Z,33.10
2023-03-06T18:23:51.901Z,33.90
2023-03-06T18:28:47.439Z,32.00
2023-03-06T18:33:40.095Z,35.20
2023-03-06T18:38:33.521Z,31.80
2023-03-06T18:43:26.256Z,33.00
2023-03-06T18:48:18.983Z,32.80
2023-03-06T18:53:11.774Z,35.00
2023-03-06T18:58:04.529Z,38.60
2023-03-06T19:02:57.233Z,32.60
2023-03-06T19:07:49.972Z,33.90
2023-03-06T19:12:42.780Z,34.10
2023-03-06T19:17:37.715Z,34.30
2023-03-06T19:22:31.610Z,36.30
2023-03-06T19:27:24.308Z,32.50
2023-03-06T19:32:17.188Z,34.90
2023-03-06T19:37:10.073Z,29.60
2023-03-06T19:42:04.714Z,32.80
2023-03-06T19:46:57.693Z,36.70
2023-03-06T19:51:50.450Z,33.60
2023-03-06T19:56:43.390Z,33.70
2023-03-06T20:01:36.232Z,35.40
2023-03-06T20:06:33.603Z,31.30
2023-03-06T20:11:29.904Z,37.00
2023-03-06T20:16:30.202Z,34.50
2023-03-06T20:21:23.383Z,30.00
2023-03-06T20:26:17.172Z,32.00
2023-03-06T20:31:19.571Z,31.20
2023-03-06T20:36:40.517Z,33.10
2023-03-06T20:41:33.966Z,29.70
2023-03-06T20:47:21.875Z,33.90
2023-03-06T20:53:14.029Z,33.70
2023-03-06T20:58:42.452Z,32.90
2023-03-06T21:03:35.893Z,32.80
2023-03-06T21:08:28.963Z,28.50
2023-03-06T21:18:55.216Z,21.50
2023-03-06T21:23:49.580Z,22.00
2023-03-06T21:28:42.816Z,21.50
2023-03-06T21:33:35.697Z,17.30
2023-03-06T21:38:29.238Z,16.00
2023-03-06T21:43:22.004Z,16.50
2023-03-06T21:48:16.274Z,14.20
2023-03-06T21:53:10.089Z,19.80
2023-03-06T21:58:02.828Z,17.90
2023-03-06T22:02:55.610Z,20.00
2023-03-06T22:07:48.535Z,17.20
2023-03-06T22:12:42.063Z,18.10
2023-03-06T22:17:34.820Z,21.70
2023-03-06T22:22:27.867Z,21.30
2023-03-06T22:27:20.605Z,23.30
2023-03-06T22:32:13.445Z,19.70
2023-03-06T22:37:06.189Z,25.40
2023-03-06T22:41:59.186Z,23.10
2023-03-06T22:46:52.215Z,27.00
2023-03-06T22:51:44.888Z,28.20
2023-03-06T22:56:37.850Z,27.80
2023-03-06T23:01:33.818Z,31.40
2023-03-06T23:06:31.942Z,33.40
2023-03-06T23:11:25.679Z,30.10
2023-03-06T23:16:38.521Z,29.80
2023-03-06T23:21:49.963Z,31.70
2023-03-06T23:27:02.585Z,34.20
2023-03-06T23:31:55.261Z,32.20
2023-03-06T23:36:50.611Z,33.90
2023-03-06T23:41:44.558Z,35.90
2023-03-06T23:46:37.808Z,36.10
2023-03-06T23:51:30.538Z,36.20
2023-03-06T23:56:24.238Z,34.40
